createdAt,value
2015-08-09T00:00:11.841Z,11.18
2015-08-09T00:00:24.231Z,11.1
2015-08-09T00:00:36.606Z,11.2
2015-08-09T00:00:48.997Z,11.2
2015-08-09T00:01:01.372Z,11.15
2015-08-09T00:01:13.749Z,11.12
2015-08-09T00:01:26.124Z,11.2
2015-08-09T00:01:38.499Z,11.18
2015-08-09T00:01:50.889Z,11.13
2015-08-09T00:02:03.311Z,11.2
2015-08-09T00:02:15.705Z,11.2
2015-08-09T00:02:28.080Z,11.15
2015-08-09T00:02:40.471Z,11.18
2015-08-09T00:02:52.861Z,11.21
2015-08-09T00:03:05.267Z,11.18
2015-08-09T00:03:17.690Z,11.2
2015-08-09T00:03:30.081Z,11.15
2015-08-09T00:03:42.518Z,11.24
2015-08-09T00:03:54.925Z,11.18
2015-08-09T00:04:07.331Z,11.16
2015-08-09T00:04:19.739Z,11.16
2015-08-09T00:04:32.161Z,11.13
2015-08-09T00:04:44.552Z,11.16
2015-08-09T00:04:56.974Z,11.21
2015-08-09T00:05:08.520Z,11.21
2015-08-09T00:05:20.882Z,11.16
2015-08-09T00:05:33.272Z,11.16
2015-08-09T00:05:45.647Z,11.16
2015-08-09T00:05:58.022Z,11.21
2015-08-09T00:06:10.397Z,11.16
2015-08-09T00:06:22.775Z,11.26
2015-08-09T00:06:35.150Z,11.27
2015-08-09T00:06:47.541Z,11.35
2015-08-09T00:06:59.916Z,11.28
2015-08-09T00:07:12.291Z,11.31
2015-08-09T00:07:24.668Z,11.27
2015-08-09T00:07:37.059Z,11.3
2015-08-09T00:07:49.434Z,11.23
2015-08-09T00:08:01.809Z,11.27
2015-08-09T00:08:14.199Z,11.27
2015-08-09T00:08:26.575Z,11.31
2015-08-09T00:08:38.950Z,11.33
2015-08-09T00:08:51.325Z,11.39
2015-08-09T00:09:03.700Z,11.27
2015-08-09T00:09:16.091Z,11.35
2015-08-09T00:09:28.469Z,11.38
2015-08-09T00:09:40.860Z,11.38
2015-08-09T00:09:53.235Z,11.31
2015-08-09T00:10:05.610Z,11.41
2015-08-09T00:10:17.985Z,11.42
2015-08-09T00:10:30.361Z,11.42
2015-08-09T00:10:42.736Z,11.34
2015-08-09T00:10:55.111Z,11.34
2015-08-09T00:11:07.486Z,11.39
2015-08-09T00:11:19.876Z,11.39
2015-08-09T00:11:32.253Z,11.43
2015-08-09T00:11:44.644Z,11.39
2015-08-09T00:11:57.034Z,11.39
2015-08-09T00:12:09.441Z,11.42
2015-08-09T00:12:21.847Z,11.42
2015-08-09T00:12:34.272Z,11.42
2015-08-09T00:12:46.678Z,11.38
2015-08-09T00:12:59.100Z,11.46
2015-08-09T00:13:11.491Z,11.46
2015-08-09T00:13:23.897Z,11.48
2015-08-09T00:13:36.305Z,11.45
2015-08-09T00:13:48.727Z,11.42
2015-08-09T00:14:01.133Z,11.41
2015-08-09T00:14:13.602Z,11.41
2015-08-09T00:14:26.024Z,11.41
2015-08-09T00:14:38.401Z,11.43
2015-08-09T00:14:50.776Z,11.45
2015-08-09T00:15:03.151Z,11.48
2015-08-09T00:15:15.526Z,11.43
2015-08-09T00:15:27.901Z,11.39
2015-08-09T00:15:40.278Z,11.42
2015-08-09T00:15:52.731Z,11.46
2015-08-09T00:16:05.137Z,11.43
2015-08-09T00:16:17.528Z,11.41
2015-08-09T00:16:29.903Z,11.38
2015-08-09T00:16:42.280Z,11.41
2015-08-09T00:16:54.655Z,11.41
2015-08-09T00:17:07.030Z,11.45
2015-08-09T00:17:19.405Z,11.38
2015-08-09T00:17:31.780Z,11.42
2015-08-09T00:17:44.171Z,11.46
2015-08-09T00:17:56.546Z,11.39
2015-08-09T00:18:08.921Z,11.39
2015-08-09T00:18:20.578Z,11.35
2015-08-09T00:18:32.953Z,11.41
2015-08-09T00:18:45.345Z,11.41
2015-08-09T00:18:57.736Z,11.39
2015-08-09T00:19:10.095Z,11.43
2015-08-09T00:19:22.486Z,11.35
2015-08-09T00:19:34.861Z,11.34
2015-08-09T00:19:47.254Z,11.42
2015-08-09T00:19:59.629Z,11.33
2015-08-09T00:20:12.004Z,11.41
2015-08-09T00:20:24.394Z,11.39
2015-08-09T00:20:36.785Z,11.34
2015-08-09T00:20:49.162Z,11.31
2015-08-09T00:21:01.552Z,11.38
2015-08-09T00:21:13.927Z,11.34
2015-08-09T00:21:26.318Z,11.38
2015-08-09T00:21:38.724Z,11.31
2015-08-09T00:21:51.148Z,11.3
2015-08-09T00:22:03.539Z,11.28
2015-08-09T00:22:15.961Z,11.27
2015-08-09T00:22:28.367Z,11.27
2015-08-09T00:22:40.773Z,11.16
2015-08-09T00:22:52.463Z,11.2
2015-08-09T00:23:04.869Z,11.18
2015-08-09T00:23:16.588Z,11.18
2015-08-09T00:23:28.994Z,11.21
2015-08-09T00:23:41.400Z,11.2
2015-08-09T00:23:53.793Z,11.16
2015-08-09T00:24:06.183Z,11.13
2015-08-09T00:24:18.558Z,11.21
2015-08-09T00:24:30.918Z,11.18
2015-08-09T00:24:43.308Z,11.18
2015-08-09T00:24:55.670Z,11.18
2015-08-09T00:25:08.045Z,11.15
2015-08-09T00:25:20.420Z,11.2
2015-08-09T00:25:32.795Z,11.2
2015-08-09T00:25:45.185Z,11.13
2015-08-09T00:25:57.579Z,11.13
2015-08-09T00:26:09.954Z,11.12
2015-08-09T00:26:22.345Z,11.16
2015-08-09T00:26:34.704Z,11.13
2015-08-09T00:26:47.095Z,11.02
2015-08-09T00:26:59.471Z,11.09
2015-08-09T00:27:11.861Z,11.05
2015-08-09T00:27:24.236Z,11.05
2015-08-09T00:27:36.627Z,11.05
2015-08-09T00:27:49.002Z,10.98
2015-08-09T00:28:01.379Z,10.98
2015-08-09T00:28:13.754Z,11.06
2015-08-09T00:28:26.129Z,10.97
2015-08-09T00:28:38.520Z,10.98
2015-08-09T00:28:50.895Z,11.05
2015-08-09T00:29:03.272Z,11.09
2015-08-09T00:29:15.647Z,10.97
2015-08-09T00:29:28.022Z,11
2015-08-09T00:29:40.397Z,11.08
2015-08-09T00:29:52.772Z,11.03
2015-08-09T00:30:05.164Z,11.12
2015-08-09T00:30:17.555Z,11.06
2015-08-09T00:30:29.945Z,11
2015-08-09T00:30:42.320Z,10.98
2015-08-09T00:30:54.711Z,10.98
2015-08-09T00:31:07.104Z,11.05
2015-08-09T00:31:19.510Z,11.05
2015-08-09T00:31:31.932Z,11.06
2015-08-09T00:31:44.322Z,11.02
2015-08-09T00:31:56.729Z,11.03
2015-08-09T00:32:09.137Z,11
2015-08-09T00:32:21.543Z,10.95
2015-08-09T00:32:33.934Z,11.02
2015-08-09T00:32:46.356Z,11.03
2015-08-09T00:32:58.778Z,11.05
2015-08-09T00:33:11.186Z,11.08
2015-08-09T00:33:23.592Z,11.03
2015-08-09T00:33:35.998Z,11.1
2015-08-09T00:33:48.389Z,10.98
2015-08-09T00:34:00.748Z,11.02
2015-08-09T00:34:13.125Z,11.1
2015-08-09T00:34:25.500Z,11.13
2015-08-09T00:34:37.891Z,11.02
2015-08-09T00:34:50.250Z,10.95
2015-08-09T00:35:02.641Z,11.1
2015-08-09T00:35:15.046Z,11.15
2015-08-09T00:35:27.421Z,11.1
2015-08-09T00:35:39.796Z,11.12
2015-08-09T00:35:52.171Z,11.15
2015-08-09T00:36:04.546Z,11.12
2015-08-09T00:36:16.966Z,11.09
2015-08-09T00:36:29.341Z,11.09
2015-08-09T00:36:41.731Z,11.02
2015-08-09T00:36:54.091Z,11.1
2015-08-09T00:37:06.466Z,11.15
2015-08-09T00:37:18.902Z,11.15
2015-08-09T00:37:31.262Z,11.12
2015-08-09T00:37:43.637Z,11.16
2015-08-09T00:37:56.012Z,11.13
2015-08-09T00:38:08.418Z,11.18
2015-08-09T00:38:20.119Z,11.09
2015-08-09T00:38:32.494Z,11.13
2015-08-09T00:38:44.869Z,11.13
2015-08-09T00:38:57.244Z,11.18
2015-08-09T00:39:09.619Z,11.2
2015-08-09T00:39:22.024Z,11.2
2015-08-09T00:39:34.415Z,11.21
2015-08-09T00:39:46.790Z,11.18
2015-08-09T00:39:59.181Z,11.2
2015-08-09T00:40:11.556Z,11.13
2015-08-09T00:40:23.996Z,11.18
2015-08-09T00:40:36.387Z,11.21
2015-08-09T00:40:48.793Z,11.13
2015-08-09T00:41:01.215Z,11.15
2015-08-09T00:41:13.621Z,11.18
2015-08-09T00:41:26.044Z,11.12
2015-08-09T00:41:38.450Z,11.15
2015-08-09T00:41:50.154Z,11.12
2015-08-09T00:42:02.560Z,11.23
2015-08-09T00:42:14.966Z,11.2
2015-08-09T00:42:27.405Z,11.12
2015-08-09T00:42:39.811Z,11.12
2015-08-09T00:42:52.202Z,11.16
2015-08-09T00:43:04.608Z,11.15
2015-08-09T00:43:17.030Z,11.18
2015-08-09T00:43:29.439Z,11.1
2015-08-09T00:43:41.814Z,11.1
2015-08-09T00:43:54.189Z,11.1
2015-08-09T00:44:06.564Z,11.18
2015-08-09T00:44:18.939Z,11.12
2015-08-09T00:44:31.331Z,11.15
2015-08-09T00:44:43.706Z,11.09
2015-08-09T00:44:56.190Z,11.09
2015-08-09T00:45:08.581Z,11.1
2015-08-09T00:45:20.956Z,11.12
2015-08-09T00:45:33.343Z,11.1
2015-08-09T00:45:45.718Z,11.1
2015-08-09T00:45:58.093Z,11.12
2015-08-09T00:46:10.483Z,11.1
2015-08-09T00:46:22.874Z,11.03
2015-08-09T00:46:35.257Z,11.03
2015-08-09T00:46:47.632Z,11.03
2015-08-09T00:47:00.007Z,11.03
2015-08-09T00:47:12.382Z,11.05
2015-08-09T00:47:24.757Z,11.03
2015-08-09T00:47:37.139Z,11.06
2015-08-09T00:47:49.514Z,11.02
2015-08-09T00:48:01.889Z,11.05
2015-08-09T00:48:14.279Z,11.02
2015-08-09T00:48:26.654Z,11.05
2015-08-09T00:48:39.036Z,10.98
2015-08-09T00:48:51.411Z,11.03
2015-08-09T00:49:03.786Z,11
2015-08-09T00:49:16.161Z,11.12
2015-08-09T00:49:28.552Z,10.95
2015-08-09T00:49:40.951Z,11.05
2015-08-09T00:49:53.341Z,10.98
2015-08-09T00:50:05.732Z,11.06
2015-08-09T00:50:18.123Z,11
2015-08-09T00:50:30.529Z,11
2015-08-09T00:50:42.956Z,11.06
2015-08-09T00:50:55.346Z,11
2015-08-09T00:51:07.768Z,11.03
2015-08-09T00:51:20.174Z,10.98
2015-08-09T00:51:32.565Z,11
2015-08-09T00:51:44.991Z,11.02
2015-08-09T00:51:57.382Z,11
2015-08-09T00:52:09.850Z,10.97
2015-08-09T00:52:22.257Z,10.88
2015-08-09T00:52:34.663Z,11.03
2015-08-09T00:52:47.089Z,11.03
2015-08-09T00:52:59.464Z,10.95
2015-08-09T00:53:11.839Z,10.91
2015-08-09T00:53:22.792Z,10.87
2015-08-09T00:53:35.167Z,10.98
2015-08-09T00:53:47.546Z,10.97
2015-08-09T00:53:59.921Z,10.95
2015-08-09T00:54:12.296Z,10.92
2015-08-09T00:54:24.671Z,10.94
2015-08-09T00:54:37.046Z,10.9
2015-08-09T00:54:49.440Z,10.88
2015-08-09T00:55:01.815Z,10.91
2015-08-09T00:55:14.190Z,10.87
2015-08-09T00:55:26.565Z,10.83
2015-08-09T00:55:38.940Z,10.91
2015-08-09T00:55:51.334Z,10.9
2015-08-09T00:56:03.725Z,10.91
2015-08-09T00:56:16.100Z,10.87
2015-08-09T00:56:28.506Z,10.77
2015-08-09T00:56:40.881Z,10.87
2015-08-09T00:56:52.540Z,10.83
2015-08-09T00:57:04.915Z,10.85
2015-08-09T00:57:16.587Z,10.79
2015-08-09T00:57:28.978Z,10.79
2015-08-09T00:57:41.353Z,10.84
2015-08-09T00:57:53.730Z,10.73
2015-08-09T00:58:06.105Z,10.76
2015-08-09T00:58:18.480Z,10.76
2015-08-09T00:58:30.855Z,10.84
2015-08-09T00:58:43.245Z,10.73
2015-08-09T00:58:55.639Z,10.79
2015-08-09T00:59:08.014Z,10.73
2015-08-09T00:59:20.405Z,10.73
2015-08-09T00:59:32.795Z,10.77
2015-08-09T00:59:45.186Z,10.7
2015-08-09T00:59:57.595Z,10.75
2015-08-09T01:00:10.001Z,10.75
2015-08-09T01:00:22.408Z,10.8
2015-08-09T01:00:34.814Z,10.7
2015-08-09T01:00:47.204Z,10.77
2015-08-09T01:00:59.613Z,10.77
2015-08-09T01:01:12.019Z,10.69
2015-08-09T01:01:24.441Z,10.77
2015-08-09T01:01:36.863Z,10.83
2015-08-09T01:01:49.269Z,10.79
2015-08-09T01:02:01.677Z,10.77
2015-08-09T01:02:14.130Z,10.75
2015-08-09T01:02:26.505Z,10.72
2015-08-09T01:02:38.896Z,10.77
2015-08-09T01:02:50.552Z,10.72
2015-08-09T01:03:02.946Z,10.73
2015-08-09T01:03:15.321Z,10.77
2015-08-09T01:03:27.696Z,10.7
2015-08-09T01:03:40.071Z,10.77
2015-08-09T01:03:52.446Z,10.7
2015-08-09T01:04:04.838Z,10.76
2015-08-09T01:04:17.213Z,10.79
2015-08-09T01:04:29.588Z,10.65
2015-08-09T01:04:41.963Z,10.69
2015-08-09T01:04:54.338Z,10.73
2015-08-09T01:05:06.715Z,10.73
2015-08-09T01:05:19.090Z,10.72
2015-08-09T01:05:31.465Z,10.75
2015-08-09T01:05:43.856Z,10.75
2015-08-09T01:05:56.231Z,10.79
2015-08-09T01:06:08.609Z,10.72
2015-08-09T01:06:20.265Z,10.76
2015-08-09T01:06:32.656Z,10.66
2015-08-09T01:06:45.031Z,10.66
2015-08-09T01:06:57.437Z,10.67
2015-08-09T01:07:09.814Z,10.66
2015-08-09T01:07:22.205Z,10.65
2015-08-09T01:07:33.861Z,10.67
2015-08-09T01:07:46.252Z,10.57
2015-08-09T01:07:58.627Z,10.58
2015-08-09T01:08:11.018Z,10.57
2015-08-09T01:08:23.409Z,10.63
2015-08-09T01:08:35.784Z,10.59
2015-08-09T01:08:48.175Z,10.55
2015-08-09T01:09:00.565Z,10.61
2015-08-09T01:09:12.942Z,10.61
2015-08-09T01:09:25.333Z,10.59
2015-08-09T01:09:37.739Z,10.49
2015-08-09T01:09:50.161Z,10.58
2015-08-09T01:10:02.583Z,10.59
2015-08-09T01:10:14.976Z,10.63
2015-08-09T01:10:27.383Z,10.47
2015-08-09T01:10:39.789Z,10.49
2015-08-09T01:10:52.195Z,10.49
2015-08-09T01:11:04.617Z,10.51
2015-08-09T01:11:17.041Z,10.54
2015-08-09T01:11:29.447Z,10.55
2015-08-09T01:11:41.853Z,10.54
2015-08-09T01:11:54.228Z,10.52
2015-08-09T01:12:06.603Z,10.51
2015-08-09T01:12:18.979Z,10.51
2015-08-09T01:12:31.354Z,10.38
2015-08-09T01:12:43.729Z,10.39
2015-08-09T01:12:56.104Z,10.41
2015-08-09T01:13:08.479Z,10.46
2015-08-09T01:13:20.857Z,10.41
2015-08-09T01:13:33.232Z,10.38
2015-08-09T01:13:45.607Z,10.39
2015-08-09T01:13:57.982Z,10.39
2015-08-09T01:14:10.357Z,10.36
2015-08-09T01:14:22.750Z,10.33
2015-08-09T01:14:35.125Z,10.33
2015-08-09T01:14:47.516Z,10.41
2015-08-09T01:14:59.891Z,10.31
2015-08-09T01:15:12.266Z,10.41
2015-08-09T01:15:24.642Z,10.42
2015-08-09T01:15:37.017Z,10.36
2015-08-09T01:15:49.392Z,10.39
2015-08-09T01:16:01.767Z,10.38
2015-08-09T01:16:14.142Z,10.36
2015-08-09T01:16:26.551Z,10.29
2015-08-09T01:16:38.926Z,10.36
2015-08-09T01:16:51.301Z,10.38
2015-08-09T01:17:03.676Z,10.38
2015-08-09T01:17:16.067Z,10.29
2015-08-09T01:17:28.443Z,10.25
2015-08-09T01:17:40.849Z,10.26
2015-08-09T01:17:53.239Z,10.25
2015-08-09T01:18:05.630Z,10.29
2015-08-09T01:18:18.005Z,10.33
2015-08-09T01:18:30.398Z,10.26
2015-08-09T01:18:42.788Z,10.26
2015-08-09T01:18:55.195Z,10.35
2015-08-09T01:19:07.601Z,10.23
2015-08-09T01:19:20.007Z,10.23
2015-08-09T01:19:32.432Z,10.21
2015-08-09T01:19:44.838Z,10.23
2015-08-09T01:19:57.244Z,10.26
2015-08-09T01:20:09.651Z,10.18
2015-08-09T01:20:22.057Z,10.28
2015-08-09T01:20:34.480Z,10.28
2015-08-09T01:20:46.886Z,10.28
2015-08-09T01:20:59.277Z,10.23
2015-08-09T01:21:11.683Z,10.21
2015-08-09T01:21:24.089Z,10.21
2015-08-09T01:21:36.466Z,10.17
2015-08-09T01:21:48.841Z,10.25
2015-08-09T01:22:01.216Z,10.17
2015-08-09T01:22:13.591Z,10.28
2015-08-09T01:22:25.966Z,10.21
2015-08-09T01:22:38.343Z,10.2
2015-08-09T01:22:50.718Z,10.1
2015-08-09T01:23:03.109Z,10.15
2015-08-09T01:23:15.484Z,10.15
2015-08-09T01:23:27.859Z,10.14
2015-08-09T01:23:40.251Z,10.26
2015-08-09T01:23:52.626Z,10.13
2015-08-09T01:24:05.001Z,10.13
2015-08-09T01:24:17.376Z,10.18
2015-08-09T01:24:29.767Z,10.2
2015-08-09T01:24:42.145Z,10.2
2015-08-09T01:24:54.520Z,10.1
2015-08-09T01:25:06.895Z,10.18
2015-08-09T01:25:19.270Z,10.17
2015-08-09T01:25:31.661Z,10.18
2015-08-09T01:25:44.037Z,10.1
2015-08-09T01:25:56.412Z,10.18
2015-08-09T01:26:08.787Z,10.23
2015-08-09T01:26:21.162Z,10.08
2015-08-09T01:26:33.537Z,10.17
2015-08-09T01:26:45.914Z,10.14
2015-08-09T01:26:57.586Z,10.15
2015-08-09T01:27:09.961Z,10.1
2015-08-09T01:27:22.336Z,10.11
2015-08-09T01:27:34.711Z,10.14
2015-08-09T01:27:47.088Z,10.11
2015-08-09T01:27:59.463Z,10.14
2015-08-09T01:28:11.853Z,10.14
2015-08-09T01:28:24.244Z,10.11
2015-08-09T01:28:36.634Z,10.14
2015-08-09T01:28:49.058Z,10.17
2015-08-09T01:29:01.480Z,10.15
2015-08-09T01:29:13.886Z,10.11
2015-08-09T01:29:26.293Z,10.11
2015-08-09T01:29:38.699Z,10.13
2015-08-09T01:29:51.107Z,10.17
2015-08-09T01:30:03.513Z,10.14
2015-08-09T01:30:15.951Z,10.1
2015-08-09T01:30:28.357Z,10.14
2015-08-09T01:30:40.763Z,10.15
2015-08-09T01:30:53.140Z,10.15
2015-08-09T01:31:05.515Z,10.11
2015-08-09T01:31:17.890Z,10.2
2015-08-09T01:31:30.265Z,10.1
2015-08-09T01:31:42.640Z,10.15
2015-08-09T01:31:55.017Z,10.13
2015-08-09T01:32:07.392Z,10.08
2015-08-09T01:32:19.783Z,10.08
2015-08-09T01:32:32.158Z,10.08
2015-08-09T01:32:44.517Z,10.08
2015-08-09T01:32:56.191Z,10.08
2015-08-09T01:33:08.582Z,10.05
2015-08-09T01:33:20.957Z,10.07
2015-08-09T01:33:33.332Z,10.11
2015-08-09T01:33:45.723Z,10.08
2015-08-09T01:33:58.100Z,10.14
2015-08-09T01:34:10.475Z,10.1
2015-08-09T01:34:22.850Z,10.05
2015-08-09T01:34:35.225Z,10.13
2015-08-09T01:34:47.600Z,9.99
2015-08-09T01:34:59.977Z,10.1
2015-08-09T01:35:12.352Z,10.08
2015-08-09T01:35:24.742Z,10.05
2015-08-09T01:35:36.398Z,10.1
2015-08-09T01:35:48.789Z,10.03
2015-08-09T01:36:01.166Z,10.13
2015-08-09T01:36:13.541Z,10.08
2015-08-09T01:36:25.916Z,10.1
2015-08-09T01:36:38.291Z,10.14
2015-08-09T01:36:50.713Z,10.07
2015-08-09T01:37:03.090Z,10.11
2015-08-09T01:37:15.481Z,10.1
2015-08-09T01:37:27.871Z,10.1
2015-08-09T01:37:40.246Z,10.17
2015-08-09T01:37:52.652Z,10.1
2015-08-09T01:38:05.061Z,10.07
2015-08-09T01:38:17.483Z,10.11
2015-08-09T01:38:29.186Z,10.14
2015-08-09T01:38:41.826Z,10.11
2015-08-09T01:38:54.233Z,10.05
2015-08-09T01:39:06.641Z,10.13
2015-08-09T01:39:19.031Z,10.17
2015-08-09T01:39:31.469Z,10.08
2015-08-09T01:39:43.875Z,10.05
2015-08-09T01:39:56.266Z,10.17
2015-08-09T01:40:07.971Z,10.1
2015-08-09T01:40:20.393Z,10.11
2015-08-09T01:40:32.815Z,10.11
2015-08-09T01:40:45.190Z,10.15
2015-08-09T01:40:57.565Z,10.2
2015-08-09T01:41:09.942Z,10.11
2015-08-09T01:41:22.317Z,10.13
2015-08-09T01:41:34.692Z,10.13
2015-08-09T01:41:47.067Z,10.11
2015-08-09T01:41:59.442Z,10.14
2015-08-09T01:42:11.818Z,10.14
2015-08-09T01:42:24.208Z,10.08
2015-08-09T01:42:36.583Z,10.18
2015-08-09T01:42:48.958Z,10.11
2015-08-09T01:43:01.333Z,10.15
2015-08-09T01:43:13.710Z,10.1
2015-08-09T01:43:26.085Z,10.18
2015-08-09T01:43:38.476Z,10.08
2015-08-09T01:43:50.867Z,10.2
2015-08-09T01:44:03.242Z,10.15
2015-08-09T01:44:15.620Z,10.14
2015-08-09T01:44:27.995Z,10.17
2015-08-09T01:44:40.370Z,10.2
2015-08-09T01:44:52.745Z,10.17
2015-08-09T01:45:05.135Z,10.28
2015-08-09T01:45:17.511Z,10.28
2015-08-09T01:45:29.886Z,10.28
2015-08-09T01:45:42.261Z,10.18
2015-08-09T01:45:54.636Z,10.26
2015-08-09T01:46:07.011Z,10.28
2015-08-09T01:46:19.389Z,10.26
2015-08-09T01:46:31.780Z,10.25
2015-08-09T01:46:44.186Z,10.36
2015-08-09T01:46:56.577Z,10.29
2015-08-09T01:47:08.967Z,10.32
2015-08-09T01:47:21.360Z,10.28
2015-08-09T01:47:33.751Z,10.36
2015-08-09T01:47:46.157Z,10.35
2015-08-09T01:47:57.860Z,10.33
2015-08-09T01:48:10.251Z,10.38
2015-08-09T01:48:22.659Z,10.39
2015-08-09T01:48:35.065Z,10.33
2015-08-09T01:48:47.471Z,10.36
2015-08-09T01:48:59.893Z,10.36
2015-08-09T01:49:12.299Z,10.28
2015-08-09T01:49:24.708Z,10.36
2015-08-09T01:49:37.114Z,10.42
2015-08-09T01:49:49.551Z,10.41
2015-08-09T01:50:01.926Z,10.32
2015-08-09T01:50:14.317Z,10.41
2015-08-09T01:50:26.694Z,10.46
2015-08-09T01:50:39.069Z,10.39
2015-08-09T01:50:51.444Z,10.46
2015-08-09T01:51:03.819Z,10.41
2015-08-09T01:51:16.194Z,10.38
2015-08-09T01:51:28.571Z,10.42
2015-08-09T01:51:40.962Z,10.38
2015-08-09T01:51:53.337Z,10.39
2015-08-09T01:52:05.712Z,10.41
2015-08-09T01:52:18.087Z,10.42
2015-08-09T01:52:30.464Z,10.42
2015-08-09T01:52:42.839Z,10.41
2015-08-09T01:52:55.229Z,10.38
2015-08-09T01:53:07.604Z,10.35
2015-08-09T01:53:19.979Z,10.38
2015-08-09T01:53:32.355Z,10.32
2015-08-09T01:53:44.730Z,10.44
2015-08-09T01:53:57.121Z,10.38
2015-08-09T01:54:09.496Z,10.41
2015-08-09T01:54:21.871Z,10.33
2015-08-09T01:54:34.264Z,10.41
2015-08-09T01:54:46.639Z,10.33
2015-08-09T01:54:58.295Z,10.36
2015-08-09T01:55:10.685Z,10.36
2015-08-09T01:55:23.060Z,10.39
2015-08-09T01:55:35.437Z,10.38
2015-08-09T01:55:47.812Z,10.44
2015-08-09T01:56:00.219Z,10.39
2015-08-09T01:56:12.609Z,10.36
2015-08-09T01:56:25.000Z,10.35
2015-08-09T01:56:37.393Z,10.36
2015-08-09T01:56:49.768Z,10.35
2015-08-09T01:57:02.174Z,10.38
2015-08-09T01:57:14.596Z,10.35
2015-08-09T01:57:26.299Z,10.35
2015-08-09T01:57:38.723Z,10.36
2015-08-09T01:57:51.129Z,10.28
2015-08-09T01:58:03.566Z,10.23
2015-08-09T01:58:15.973Z,10.29
2015-08-09T01:58:28.379Z,10.28
2015-08-09T01:58:40.803Z,10.25
2015-08-09T01:58:53.209Z,10.35
2015-08-09T01:59:05.615Z,10.32
2015-08-09T01:59:18.022Z,10.32
2015-08-09T01:59:30.428Z,10.29
2015-08-09T01:59:42.852Z,10.31
2015-08-09T01:59:55.227Z,10.28
2015-08-09T02:00:07.602Z,10.33
2015-08-09T02:00:19.977Z,10.33
2015-08-09T02:00:32.352Z,10.23
2015-08-09T02:00:44.744Z,10.31
2015-08-09T02:00:57.119Z,10.28
2015-08-09T02:01:09.494Z,10.26
2015-08-09T02:01:21.885Z,10.31
2015-08-09T02:01:34.276Z,10.25
2015-08-09T02:01:46.653Z,10.31
2015-08-09T02:01:58.324Z,10.28
2015-08-09T02:02:10.699Z,10.28
2015-08-09T02:02:23.074Z,10.28
2015-08-09T02:02:35.449Z,10.32
2015-08-09T02:02:47.843Z,10.35
2015-08-09T02:03:00.234Z,10.26
2015-08-09T02:03:12.609Z,10.46
2015-08-09T02:03:24.984Z,10.41
2015-08-09T02:03:37.359Z,10.36
2015-08-09T02:03:49.750Z,10.39
2015-08-09T02:04:02.125Z,10.41
2015-08-09T02:04:14.516Z,10.41
2015-08-09T02:04:26.172Z,10.35
2015-08-09T02:04:38.547Z,10.41
2015-08-09T02:04:50.924Z,10.36
2015-08-09T02:05:03.299Z,10.38
2015-08-09T02:05:15.674Z,10.41
2015-08-09T02:05:28.049Z,10.42
2015-08-09T02:05:40.440Z,10.39
2015-08-09T02:05:52.832Z,10.44
2015-08-09T02:06:05.223Z,10.42
2015-08-09T02:06:17.614Z,10.39
2015-08-09T02:06:29.989Z,10.51
2015-08-09T02:06:42.379Z,10.42
2015-08-09T02:06:54.788Z,10.46
2015-08-09T02:07:07.209Z,10.46
2015-08-09T02:07:19.616Z,10.46
2015-08-09T02:07:32.022Z,10.52
2015-08-09T02:07:44.444Z,10.52
2015-08-09T02:07:56.853Z,10.52
2015-08-09T02:08:09.275Z,10.52
2015-08-09T02:08:21.650Z,10.46
2015-08-09T02:08:34.056Z,10.47
2015-08-09T02:08:46.416Z,10.49
2015-08-09T02:08:58.807Z,10.55
2015-08-09T02:09:11.182Z,10.49
2015-08-09T02:09:23.557Z,10.42
2015-08-09T02:09:35.917Z,10.41
2015-08-09T02:09:48.307Z,10.55
2015-08-09T02:10:00.700Z,10.55
2015-08-09T02:10:13.075Z,10.51
2015-08-09T02:10:25.465Z,10.51
2015-08-09T02:10:37.840Z,10.51
2015-08-09T02:10:50.215Z,10.47
2015-08-09T02:11:02.592Z,10.41
2015-08-09T02:11:14.983Z,10.47
2015-08-09T02:11:27.358Z,10.47
2015-08-09T02:11:39.717Z,10.47
2015-08-09T02:11:52.092Z,10.47
2015-08-09T02:12:03.782Z,10.52
2015-08-09T02:12:16.219Z,10.46
2015-08-09T02:12:28.594Z,10.38
2015-08-09T02:12:40.969Z,10.52
2015-08-09T02:12:53.344Z,10.42
2015-08-09T02:13:05.738Z,10.44
2015-08-09T02:13:18.129Z,10.49
2015-08-09T02:13:30.504Z,10.49
2015-08-09T02:13:42.894Z,10.46
2015-08-09T02:13:54.582Z,10.46
2015-08-09T02:14:06.989Z,10.47
2015-08-09T02:14:19.395Z,10.49
2015-08-09T02:14:31.083Z,10.44
2015-08-09T02:14:43.473Z,10.41
2015-08-09T02:14:55.880Z,10.42
2015-08-09T02:15:08.288Z,10.47
2015-08-09T02:15:20.694Z,10.49
2015-08-09T02:15:33.116Z,10.42
2015-08-09T02:15:45.538Z,10.42
2015-08-09T02:15:57.944Z,10.41
2015-08-09T02:16:10.352Z,10.42
2015-08-09T02:16:22.727Z,10.51
2015-08-09T02:16:35.102Z,10.49
2015-08-09T02:16:47.477Z,10.44
2015-08-09T02:16:59.852Z,10.41
2015-08-09T02:17:12.229Z,10.47
2015-08-09T02:17:24.604Z,10.46
2015-08-09T02:17:36.979Z,10.44
2015-08-09T02:17:49.354Z,10.54
2015-08-09T02:18:01.745Z,10.41
2015-08-09T02:18:14.106Z,10.44
2015-08-09T02:18:26.481Z,10.42
2015-08-09T02:18:38.856Z,10.49
2015-08-09T02:18:51.247Z,10.39
2015-08-09T02:19:03.622Z,10.42
2015-08-09T02:19:16.015Z,10.54
2015-08-09T02:19:28.390Z,10.41
2015-08-09T02:19:40.780Z,10.46
2015-08-09T02:19:53.155Z,10.49
2015-08-09T02:20:05.515Z,10.39
2015-08-09T02:20:17.892Z,10.44
2015-08-09T02:20:30.267Z,10.41
2015-08-09T02:20:41.954Z,10.42
2015-08-09T02:20:54.329Z,10.41
2015-08-09T02:21:06.704Z,10.44
2015-08-09T02:21:19.081Z,10.42
2015-08-09T02:21:31.472Z,10.44
2015-08-09T02:21:43.831Z,10.38
2015-08-09T02:21:56.222Z,10.36
2015-08-09T02:22:08.612Z,10.35
2015-08-09T02:22:21.005Z,10.42
2015-08-09T02:22:33.380Z,10.35
2015-08-09T02:22:45.771Z,10.41
2015-08-09T02:22:58.161Z,10.47
2015-08-09T02:23:10.568Z,10.41
2015-08-09T02:23:22.976Z,10.38
2015-08-09T02:23:35.382Z,10.38
2015-08-09T02:23:47.788Z,10.39
2015-08-09T02:24:00.195Z,10.38
2015-08-09T02:24:12.601Z,10.39
2015-08-09T02:24:25.009Z,10.39
2015-08-09T02:24:37.415Z,10.39
2015-08-09T02:24:49.837Z,10.42
2015-08-09T02:25:02.243Z,10.33
2015-08-09T02:25:14.697Z,10.42
2015-08-09T02:25:27.074Z,10.31
2015-08-09T02:25:39.449Z,10.35
2015-08-09T02:25:51.824Z,10.36
2015-08-09T02:26:04.199Z,10.44
2015-08-09T02:26:16.574Z,10.38
2015-08-09T02:26:28.950Z,10.36
2015-08-09T02:26:41.340Z,10.32
2015-08-09T02:26:53.715Z,10.39
2015-08-09T02:27:06.106Z,10.38
2015-08-09T02:27:18.481Z,10.38
2015-08-09T02:27:30.859Z,10.36
2015-08-09T02:27:43.249Z,10.39
2015-08-09T02:27:55.624Z,10.39
2015-08-09T02:28:07.999Z,10.39
2015-08-09T02:28:20.390Z,10.38
2015-08-09T02:28:32.767Z,10.35
2015-08-09T02:28:45.158Z,10.36
2015-08-09T02:28:57.533Z,10.35
2015-08-09T02:29:09.908Z,10.38
2015-08-09T02:29:22.283Z,10.39
2015-08-09T02:29:34.675Z,10.36
2015-08-09T02:29:47.066Z,10.39
2015-08-09T02:29:59.457Z,10.38
2015-08-09T02:30:11.832Z,10.33
2015-08-09T02:30:24.207Z,10.39
2015-08-09T02:30:36.598Z,10.44
2015-08-09T02:30:48.973Z,10.39
2015-08-09T02:31:01.348Z,10.38
2015-08-09T02:31:13.723Z,10.41
2015-08-09T02:31:26.145Z,10.42
2015-08-09T02:31:38.539Z,10.44
2015-08-09T02:31:50.914Z,10.39
2015-08-09T02:32:03.304Z,10.41
2015-08-09T02:32:15.695Z,10.39
2015-08-09T02:32:28.086Z,10.44
2015-08-09T02:32:40.509Z,10.38
2015-08-09T02:32:52.916Z,10.32
2015-08-09T02:33:05.322Z,10.39
2015-08-09T02:33:17.025Z,10.39
2015-08-09T02:33:29.431Z,10.41
2015-08-09T02:33:41.824Z,10.41
2015-08-09T02:33:54.246Z,10.44
2015-08-09T02:34:06.652Z,10.38
2015-08-09T02:34:19.058Z,10.38
2015-08-09T02:34:31.465Z,10.33
2015-08-09T02:34:43.856Z,10.44
2015-08-09T02:34:56.231Z,10.38
2015-08-09T02:35:08.606Z,10.44
2015-08-09T02:35:20.981Z,10.33
2015-08-09T02:35:33.356Z,10.35
2015-08-09T02:35:45.733Z,10.41
2015-08-09T02:35:58.108Z,10.44
2015-08-09T02:36:10.483Z,10.46
2015-08-09T02:36:22.874Z,10.39
2015-08-09T02:36:35.233Z,10.35
2015-08-09T02:36:47.611Z,10.36
2015-08-09T02:37:00.002Z,10.36
2015-08-09T02:37:12.377Z,10.35
2015-08-09T02:37:24.752Z,10.39
2015-08-09T02:37:37.189Z,10.36
2015-08-09T02:37:49.582Z,10.36
2015-08-09T02:38:01.957Z,10.38
2015-08-09T02:38:14.332Z,10.47
2015-08-09T02:38:26.707Z,10.41
2015-08-09T02:38:39.082Z,10.44
2015-08-09T02:38:51.474Z,10.46
2015-08-09T02:39:03.849Z,10.44
2015-08-09T02:39:16.255Z,10.54
2015-08-09T02:39:28.645Z,10.54
2015-08-09T02:39:41.036Z,10.39
2015-08-09T02:39:53.430Z,10.49